createdAt,value
2019-03-15T00:01:18.932Z,28.00
2019-03-15T00:03:26.579Z,29.87
2019-03-15T00:05:34.232Z,31.50
2019-03-15T00:07:41.861Z,31.82
2019-03-15T00:09:49.432Z,30.17
2019-03-15T00:11:57.098Z,28.47
2019-03-15T00:14:04.982Z,30.17
2019-03-15T00:16:12.553Z,31.80
2019-03-15T00:18:20.125Z,34.45
2019-03-15T00:20:27.738Z,28.10
2019-03-15T00:22:35.305Z,29.50
2019-03-15T00:24:42.981Z,30.75
2019-03-15T00:26:50.737Z,29.20
2019-03-15T00:28:58.443Z,29.15
2019-03-15T00:31:06.246Z,30.08
2019-03-15T00:33:14.047Z,27.40
2019-03-15T00:35:21.619Z,23.95
2019-03-15T00:37:29.195Z,28.07
2019-03-15T00:39:36.795Z,29.18
2019-03-15T00:41:44.365Z,30.80
2019-03-15T00:43:51.941Z,31.00
2019-03-15T00:45:59.643Z,28.12
2019-03-15T00:48:07.224Z,28.75
2019-03-15T00:50:15.301Z,26.45
2019-03-15T00:52:22.912Z,23.73
2019-03-15T00:54:30.688Z,25.60
2019-03-15T00:56:38.402Z,22.58
2019-03-15T00:58:46.950Z,21.20
2019-03-15T01:00:54.521Z,22.87
2019-03-15T01:03:02.561Z,20.37
2019-03-15T01:05:10.348Z,23.85
2019-03-15T01:07:18.027Z,22.48
2019-03-15T01:09:25.608Z,22.52
2019-03-15T01:11:33.298Z,28.15
2019-03-15T01:13:40.787Z,27.35
2019-03-15T01:15:48.454Z,26.17
2019-03-15T01:17:56.191Z,23.42
2019-03-15T01:20:05.200Z,23.65
2019-03-15T01:22:12.671Z,23.40
2019-03-15T01:24:20.371Z,25.85
2019-03-15T01:26:28.003Z,24.30
2019-03-15T01:28:35.572Z,25.37
2019-03-15T01:30:43.412Z,23.55
2019-03-15T01:32:51.083Z,25.48
2019-03-15T01:34:58.667Z,25.00
2019-03-15T01:37:06.355Z,24.37
2019-03-15T01:39:14.129Z,22.22
2019-03-15T01:41:21.707Z,25.15
2019-03-15T01:43:30.601Z,24.80
2019-03-15T01:45:38.172Z,30.32
2019-03-15T01:47:45.809Z,24.00
2019-03-15T01:49:53.510Z,24.77
2019-03-15T01:52:01.286Z,26.12
2019-03-15T01:54:08.993Z,25.90
2019-03-15T01:56:16.585Z,26.25
2019-03-15T01:58:24.174Z,25.88
2019-03-15T02:00:31.878Z,25.17
2019-03-15T02:02:39.648Z,25.82
2019-03-15T02:04:47.289Z,28.50
2019-03-15T02:06:54.965Z,26.40
2019-03-15T02:09:02.665Z,24.35
2019-03-15T02:11:10.332Z,25.72
2019-03-15T02:13:18.173Z,29.67
2019-03-15T02:15:25.784Z,26.15
2019-03-15T02:17:33.353Z,25.23
2019-03-15T02:19:41.091Z,19.70
2019-03-15T02:21:48.702Z,20.95
2019-03-15T02:23:57.494Z,18.82
2019-03-15T02:26:05.114Z,16.15
2019-03-15T02:28:12.812Z,16.10
2019-03-15T02:30:20.382Z,14.33
2019-03-15T02:32:29.022Z,12.35
2019-03-15T02:34:36.613Z,10.93
2019-03-15T02:36:44.353Z,12.23
2019-03-15T02:38:54.137Z,11.90
2019-03-15T02:41:02.159Z,12.65
2019-03-15T02:43:10.034Z,13.62
2019-03-15T02:45:17.780Z,13.13
2019-03-15T02:47:25.583Z,11.38
2019-03-15T02:49:34.840Z,12.35
2019-03-15T02:51:42.774Z,12.25
2019-03-15T02:53:50.446Z,13.15
2019-03-15T02:55:58.010Z,12.55
2019-03-15T02:58:05.820Z,12.60
2019-03-15T03:00:13.996Z,11.50
2019-03-15T03:02:22.797Z,11.10
2019-03-15T03:04:30.468Z,11.80
2019-03-15T03:06:38.164Z,12.40
2019-03-15T03:08:45.810Z,13.10
2019-03-15T03:10:53.452Z,13.08
2019-03-15T03:13:01.133Z,10.72
2019-03-15T03:15:09.445Z,12.93
2019-03-15T03:17:17.081Z,13.20
2019-03-15T03:19:24.674Z,11.78
2019-03-15T03:21:32.381Z,12.70
2019-03-15T03:23:40.016Z,13.08
2019-03-15T03:25:47.653Z,11.28
2019-03-15T03:27:55.224Z,13.08
2019-03-15T03:30:03.285Z,12.75
2019-03-15T03:32:12.661Z,13.10
2019-03-15T03:34:20.241Z,14.33
2019-03-15T03:36:27.890Z,17.35
2019-03-15T03:38:35.887Z,17.55
2019-03-15T03:40:43.534Z,14.45
2019-03-15T03:42:51.099Z,17.17
2019-03-15T03:44:58.701Z,20.10
2019-03-15T03:47:06.272Z,17.77
2019-03-15T03:49:14.196Z,16.27
2019-03-15T03:51:21.945Z,19.15
2019-03-15T03:53:29.511Z,15.20
2019-03-15T03:55:37.081Z,13.45
2019-03-15T03:57:44.791Z,13.20
2019-03-15T03:59:52.434Z,14.75
2019-03-15T04:02:00.002Z,13.18
2019-03-15T04:04:09.739Z,12.47
2019-03-15T04:06:17.379Z,13.13
2019-03-15T04:08:26.242Z,12.23
2019-03-15T04:10:33.943Z,12.70
2019-03-15T04:12:41.620Z,14.13
2019-03-15T04:14:50.489Z,13.30
2019-03-15T04:16:58.092Z,13.13
2019-03-15T04:19:08.667Z,12.63
2019-03-15T04:21:16.230Z,13.95
2019-03-15T04:23:23.869Z,13.53
2019-03-15T04:25:31.539Z,12.90
2019-03-15T04:27:39.214Z,12.23
2019-03-15T04:29:46.880Z,13.55
2019-03-15T04:31:54.519Z,13.65
2019-03-15T04:34:02.092Z,14.28
2019-03-15T04:36:09.737Z,13.70
2019-03-15T04:38:17.475Z,13.35
2019-03-15T04:40:25.050Z,13.78
2019-03-15T04:42:32.924Z,13.25
2019-03-15T04:44:40.632Z,13.30
2019-03-15T04:46:48.390Z,12.73
2019-03-15T04:48:56.082Z,14.38
2019-03-15T04:51:03.757Z,19.32
2019-03-15T04:53:11.351Z,18.05
2019-03-15T04:55:19.047Z,14.38
2019-03-15T04:57:26.615Z,16.77
2019-03-15T04:59:34.193Z,16.62
2019-03-15T05:01:41.888Z,19.87
2019-03-15T05:03:49.462Z,18.95
2019-03-15T05:06:03.312Z,17.37
2019-03-15T05:08:07.183Z,20.82
2019-03-15T05:10:14.856Z,21.33
2019-03-15T05:12:22.426Z,25.75
2019-03-15T05:14:30.103Z,22.25
2019-03-15T05:16:37.776Z,22.93
2019-03-15T05:18:48.900Z,20.10
2019-03-15T05:20:57.071Z,20.48
2019-03-15T05:23:04.744Z,23.55
2019-03-15T05:25:12.615Z,22.30
2019-03-15T05:27:20.214Z,22.85
2019-03-15T05:29:27.795Z,29.05
2019-03-15T05:31:35.520Z,32.10
2019-03-15T05:33:43.193Z,33.80
2019-03-15T05:35:50.877Z,38.98
2019-03-15T05:37:58.591Z,41.68
2019-03-15T05:40:08.117Z,44.58
2019-03-15T05:42:15.738Z,45.67
2019-03-15T05:44:23.413Z,43.95
2019-03-15T05:46:31.482Z,42.25
2019-03-15T05:48:39.053Z,38.83
2019-03-15T05:50:46.727Z,43.15
2019-03-15T05:52:54.420Z,43.85
2019-03-15T05:55:01.988Z,34.45
2019-03-15T05:57:09.660Z,38.08
2019-03-15T05:59:17.251Z,36.65
2019-03-15T06:01:24.827Z,27.27
2019-03-15T06:03:32.407Z,27.73
2019-03-15T06:05:40.176Z,29.72
2019-03-15T06:07:48.685Z,24.57
2019-03-15T06:09:56.334Z,23.38
2019-03-15T06:12:03.926Z,22.42
2019-03-15T06:14:11.500Z,21.37
2019-03-15T06:16:19.088Z,23.35
2019-03-15T06:18:26.764Z,24.77
2019-03-15T06:20:34.573Z,19.67
2019-03-15T06:22:42.140Z,19.57
2019-03-15T06:24:49.808Z,22.50
2019-03-15T06:26:58.673Z,21.05
2019-03-15T06:29:06.351Z,21.75
2019-03-15T06:31:15.227Z,24.82
2019-03-15T06:33:22.871Z,25.05
2019-03-15T06:35:31.512Z,25.75
2019-03-15T06:37:39.175Z,24.15
2019-03-15T06:39:47.823Z,23.07
2019-03-15T06:41:55.474Z,25.48
2019-03-15T06:44:03.091Z,21.52
2019-03-15T06:46:10.762Z,20.55
2019-03-15T06:48:18.335Z,21.35
2019-03-15T06:50:26.037Z,18.50
2019-03-15T06:52:33.612Z,22.35
2019-03-15T06:54:41.185Z,20.85
2019-03-15T06:56:48.823Z,20.82
2019-03-15T06:58:56.570Z,20.80
2019-03-15T07:01:04.246Z,21.57
2019-03-15T07:03:13.002Z,21.30
2019-03-15T07:05:20.985Z,16.80
2019-03-15T07:07:28.734Z,18.00
2019-03-15T07:09:38.364Z,16.77
2019-03-15T07:11:47.120Z,18.55
2019-03-15T07:13:54.699Z,16.93
2019-03-15T07:16:02.404Z,14.70
2019-03-15T07:18:10.143Z,15.60
2019-03-15T07:20:18.175Z,8.18
2019-03-15T07:22:25.779Z,16.37
2019-03-15T07:24:33.347Z,16.48
2019-03-15T07:26:43.647Z,14.33
2019-03-15T07:28:50.315Z,7.75
2019-03-15T07:30:57.989Z,11.60
2019-03-15T07:33:05.752Z,12.23
2019-03-15T07:35:13.704Z,4.30
2019-03-15T07:37:22.310Z,11.25
2019-03-15T07:39:29.980Z,9.35
2019-03-15T07:41:37.712Z,7.55
2019-03-15T07:43:45.484Z,9.25
2019-03-15T07:45:53.267Z,10.13
2019-03-15T07:48:00.964Z,10.80
2019-03-15T07:50:14.719Z,7.35
2019-03-15T07:52:23.363Z,14.50
2019-03-15T07:54:37.988Z,12.23
2019-03-15T08:45:23.991Z,6.17
2019-03-15T08:47:33.194Z,6.83
2019-03-15T08:49:40.858Z,9.28
2019-03-15T08:51:48.571Z,9.90
2019-03-15T08:53:56.234Z,6.03
2019-03-15T08:56:04.034Z,7.65
2019-03-15T08:58:15.826Z,3.98
2019-03-15T09:00:21.383Z,8.15
2019-03-15T09:02:29.020Z,3.65
2019-03-15T09:04:36.694Z,3.85
2019-03-15T09:06:44.424Z,5.25
2019-03-15T09:08:52.083Z,6.85
2019-03-15T09:11:00.011Z,2.87
2019-03-15T09:13:07.569Z,3.30
2019-03-15T09:15:15.676Z,3.52
2019-03-15T09:17:23.446Z,5.33
2019-03-15T09:19:32.142Z,4.75
2019-03-15T09:21:39.720Z,5.25
2019-03-15T09:23:47.388Z,5.90
2019-03-15T09:25:55.992Z,4.85
2019-03-15T09:28:04.595Z,4.92
2019-03-15T09:30:23.106Z,3.25
2019-03-15T09:32:24.825Z,6.03
2019-03-15T09:34:32.451Z,4.62
2019-03-15T09:36:50.098Z,6.25
2019-03-15T09:38:49.753Z,4.30
2019-03-15T09:40:57.335Z,6.58
2019-03-15T09:43:05.172Z,3.47
2019-03-15T09:45:16.212Z,5.22
2019-03-15T09:47:24.026Z,3.85
2019-03-15T09:49:31.614Z,3.98
2019-03-15T09:51:39.246Z,5.60
2019-03-15T09:53:46.919Z,6.97
2019-03-15T09:55:54.681Z,5.95
2019-03-15T09:58:02.537Z,5.10
2019-03-15T10:00:21.233Z,3.33
2019-03-15T10:02:30.695Z,4.87
2019-03-15T10:04:38.194Z,3.45
2019-03-15T10:06:45.713Z,4.15
2019-03-15T10:08:53.453Z,4.40
2019-03-15T10:11:01.088Z,3.30
2019-03-15T10:13:08.750Z,3.75
2019-03-15T10:15:19.485Z,5.83
2019-03-15T10:17:27.294Z,5.15
2019-03-15T10:19:34.947Z,5.58
2019-03-15T10:21:42.762Z,5.67
2019-03-15T10:23:50.324Z,4.25
2019-03-15T10:25:57.876Z,6.42
2019-03-15T10:28:05.622Z,3.47
2019-03-15T10:30:22.880Z,8.10
2019-03-15T10:32:30.687Z,7.78
2019-03-15T10:34:38.358Z,7.55
2019-03-15T10:36:45.920Z,7.10
2019-03-15T10:38:53.661Z,3.87
2019-03-15T10:41:01.547Z,7.53
2019-03-15T10:43:09.413Z,4.28
2019-03-15T10:45:16.980Z,9.50
2019-03-15T10:47:24.646Z,7.87
2019-03-15T10:49:33.290Z,5.87
2019-03-15T10:51:40.932Z,8.13
2019-03-15T10:53:48.703Z,7.83
2019-03-15T10:56:00.540Z,8.70
2019-03-15T10:58:05.782Z,7.58
2019-03-15T11:00:22.159Z,5.08
2019-03-15T11:02:29.976Z,5.22
2019-03-15T11:04:37.536Z,4.10
2019-03-15T11:06:45.222Z,7.35
2019-03-15T11:08:52.886Z,7.47
2019-03-15T11:11:00.440Z,6.30
2019-03-15T11:13:08.285Z,5.70
2019-03-15T11:15:16.974Z,5.33
2019-03-15T11:17:24.606Z,5.95
2019-03-15T11:19:32.205Z,6.25
2019-03-15T11:21:39.960Z,7.62
2019-03-15T11:23:47.522Z,6.67
2019-03-15T11:25:55.123Z,5.40
2019-03-15T11:28:02.758Z,7.78
2019-03-15T11:30:13.406Z,8.45
2019-03-15T11:32:21.122Z,6.95
2019-03-15T11:34:28.911Z,4.05
2019-03-15T11:36:36.602Z,3.33
2019-03-15T11:38:44.460Z,5.12
2019-03-15T11:40:52.028Z,8.23
2019-03-15T11:42:59.696Z,6.00
2019-03-15T11:45:10.022Z,5.70
2019-03-15T11:47:17.784Z,7.08
2019-03-15T11:49:28.323Z,8.45
2019-03-15T11:51:36.186Z,8.28
2019-03-15T11:53:45.114Z,11.08
2019-03-15T11:55:52.840Z,11.43
2019-03-15T11:58:00.600Z,11.60
2019-03-15T12:00:16.808Z,11.95
2019-03-15T12:02:24.456Z,12.63
2019-03-15T12:04:32.306Z,10.30
2019-03-15T12:06:40.952Z,12.20
2019-03-15T12:08:48.611Z,10.85
2019-03-15T12:10:56.313Z,10.60
2019-03-15T12:13:04.044Z,11.35
2019-03-15T12:15:14.906Z,8.50
2019-03-15T12:17:22.502Z,4.92
2019-03-15T12:19:30.254Z,6.80
2019-03-15T12:21:37.808Z,6.10
2019-03-15T12:23:45.474Z,8.38
2019-03-15T12:25:53.222Z,9.10
2019-03-15T12:28:00.952Z,9.18
2019-03-15T12:30:16.595Z,8.95
2019-03-15T12:32:24.202Z,5.70
2019-03-15T12:34:31.888Z,8.20
2019-03-15T12:36:39.605Z,7.17
2019-03-15T12:38:47.249Z,6.28
2019-03-15T12:40:54.902Z,9.85
2019-03-15T12:43:02.661Z,9.98
2019-03-15T12:45:12.226Z,11.78
2019-03-15T12:47:19.867Z,10.98
2019-03-15T12:49:27.853Z,11.60
2019-03-15T12:51:35.761Z,9.98
2019-03-15T12:53:43.333Z,14.35
2019-03-15T12:55:51.047Z,8.18
2019-03-15T12:57:58.753Z,11.08
2019-03-15T13:00:17.143Z,14.20
2019-03-15T13:02:24.843Z,12.95
2019-03-15T13:04:32.520Z,11.55
2019-03-15T13:06:40.173Z,10.80
2019-03-15T13:08:47.845Z,11.18
2019-03-15T13:10:56.717Z,13.88
2019-03-15T13:13:04.482Z,12.00
2019-03-15T13:15:14.838Z,12.78
2019-03-15T13:17:22.482Z,12.20
2019-03-15T13:19:30.173Z,11.05
2019-03-15T13:21:38.022Z,10.85
2019-03-15T13:23:45.596Z,9.55
2019-03-15T13:25:54.650Z,9.03
2019-03-15T13:28:02.765Z,9.08
2019-03-15T13:30:19.643Z,9.73
2019-03-15T13:32:27.352Z,9.53
2019-03-15T13:34:35.093Z,8.40
2019-03-15T13:36:42.783Z,9.18
2019-03-15T13:38:50.438Z,9.65
2019-03-15T13:40:59.127Z,9.38
2019-03-15T13:43:06.962Z,8.95
2019-03-15T13:45:18.147Z,10.40
2019-03-15T13:47:26.108Z,11.90
2019-03-15T13:49:35.112Z,9.75
2019-03-15T13:51:43.228Z,11.22
2019-03-15T13:53:51.010Z,10.93
2019-03-15T13:55:58.782Z,11.12
2019-03-15T13:58:06.361Z,9.98
2019-03-15T14:00:19.156Z,10.75
2019-03-15T14:02:27.674Z,9.65
2019-03-15T14:04:35.290Z,8.98
2019-03-15T14:06:43.007Z,8.53
2019-03-15T14:08:51.648Z,8.53
2019-03-15T14:10:59.332Z,8.40
2019-03-15T14:13:07.021Z,9.68
2019-03-15T14:15:17.755Z,9.48
2019-03-15T14:17:25.536Z,9.95
2019-03-15T14:19:34.435Z,11.90
2019-03-15T14:21:42.099Z,9.78
2019-03-15T14:23:49.980Z,10.20
2019-03-15T14:25:57.659Z,10.00
2019-03-15T14:28:05.395Z,10.43
2019-03-15T14:30:14.757Z,11.38
2019-03-15T14:32:22.425Z,10.55
2019-03-15T14:34:30.100Z,11.18
2019-03-15T14:36:37.941Z,11.18
2019-03-15T14:38:47.033Z,11.68
2019-03-15T14:40:54.866Z,11.35
2019-03-15T14:43:02.675Z,12.55
2019-03-15T14:45:15.858Z,10.95
2019-03-15T14:47:23.648Z,12.40
2019-03-15T14:49:31.322Z,14.03
2019-03-15T14:51:39.773Z,13.60
2019-03-15T14:53:47.420Z,14.95
2019-03-15T14:55:55.164Z,12.98
2019-03-15T14:58:02.944Z,11.93
2019-03-15T15:00:17.117Z,10.95
2019-03-15T15:02:24.698Z,10.88
2019-03-15T15:04:32.308Z,11.60
2019-03-15T15:06:39.986Z,10.28
2019-03-15T15:08:48.537Z,11.03
2019-03-15T15:10:56.146Z,10.82
2019-03-15T15:13:03.827Z,11.00
2019-03-15T15:15:14.014Z,9.50
2019-03-15T15:17:21.812Z,11.03
2019-03-15T15:19:29.490Z,11.53
2019-03-15T15:21:37.200Z,10.30
2019-03-15T15:23:44.971Z,11.65
2019-03-15T15:25:52.538Z,9.70
2019-03-15T15:28:04.644Z,10.08
2019-03-15T15:30:15.103Z,10.85
2019-03-15T15:32:22.779Z,10.93
2019-03-15T15:34:30.355Z,10.80
2019-03-15T15:36:38.037Z,12.07
2019-03-15T15:38:45.812Z,13.03
2019-03-15T15:40:53.483Z,12.88
2019-03-15T15:43:01.346Z,12.85
2019-03-15T15:45:11.335Z,12.82
2019-03-15T15:47:18.910Z,11.73
2019-03-15T15:49:26.512Z,12.43
2019-03-15T15:51:34.155Z,11.30
2019-03-15T15:53:41.902Z,10.00
2019-03-15T15:55:49.619Z,12.05
2019-03-15T15:57:57.457Z,12.65
2019-03-15T16:00:18.408Z,13.40
2019-03-15T16:02:26.253Z,9.65
2019-03-15T16:04:35.052Z,12.65
2019-03-15T16:06:42.716Z,8.80
2019-03-15T16:08:50.512Z,8.48
2019-03-15T16:10:58.130Z,11.22
2019-03-15T16:13:16.606Z,14.00
2019-03-15T16:15:17.380Z,15.60
2019-03-15T16:17:26.244Z,17.67
2019-03-15T16:19:34.040Z,18.20
2019-03-15T16:21:41.814Z,11.75
2019-03-15T16:23:49.486Z,12.85
2019-03-15T16:25:57.055Z,12.00
2019-03-15T16:28:04.654Z,12.00
2019-03-15T16:30:20.257Z,12.70
2019-03-15T16:32:27.945Z,13.05
2019-03-15T16:34:35.859Z,14.38
2019-03-15T16:36:43.504Z,12.25
2019-03-15T16:38:51.182Z,15.83
2019-03-15T16:40:58.784Z,13.78
2019-03-15T16:43:06.503Z,14.70
2019-03-15T16:45:31.571Z,20.12
2019-03-15T16:47:39.370Z,25.75
2019-03-15T16:49:46.967Z,26.60
2019-03-15T16:51:54.628Z,22.62
2019-03-15T16:54:03.162Z,20.45
2019-03-15T16:56:10.732Z,23.32
2019-03-15T16:58:18.508Z,24.90
2019-03-15T17:00:26.202Z,26.50
2019-03-15T17:02:33.851Z,28.70
2019-03-15T17:04:41.429Z,38.28
2019-03-15T17:06:49.034Z,37.30
2019-03-15T17:08:56.619Z,38.55
2019-03-15T17:11:04.275Z,32.50
2019-03-15T17:13:12.054Z,32.60
2019-03-15T17:15:25.529Z,35.68
2019-03-15T17:17:33.106Z,33.33
2019-03-15T17:19:40.885Z,28.00
2019-03-15T17:21:48.467Z,24.35
2019-03-15T17:23:56.155Z,22.90
2019-03-15T17:26:03.741Z,23.77
2019-03-15T17:28:11.485Z,23.67
2019-03-15T17:30:19.566Z,26.68
2019-03-15T17:32:27.355Z,29.05
2019-03-15T17:34:34.952Z,29.05
2019-03-15T17:36:42.660Z,26.33
2019-03-15T17:38:51.556Z,23.85
2019-03-15T17:40:59.202Z,25.43
2019-03-15T17:43:09.189Z,23.92
2019-03-15T17:45:16.939Z,22.17
2019-03-15T17:47:24.514Z,22.93
2019-03-15T17:49:32.273Z,23.35
2019-03-15T17:51:39.992Z,25.25
2019-03-15T17:53:47.731Z,28.27
2019-03-15T17:55:56.100Z,31.68
2019-03-15T17:58:03.832Z,33.67
2019-03-15T18:00:25.148Z,31.37
2019-03-15T18:02:32.902Z,31.73
2019-03-15T18:04:40.595Z,29.55
2019-03-15T18:06:48.235Z,28.60
2019-03-15T18:08:55.885Z,28.02
2019-03-15T18:11:03.488Z,29.72
2019-03-15T18:13:11.268Z,27.42
2019-03-15T18:15:20.202Z,29.48
2019-03-15T18:17:27.981Z,29.63
2019-03-15T18:19:37.400Z,30.70
2019-03-15T18:21:44.955Z,29.45
2019-03-15T18:23:52.766Z,28.90
2019-03-15T18:26:01.590Z,27.35
2019-03-15T18:28:09.231Z,26.10
2019-03-15T18:30:17.882Z,25.43
2019-03-15T18:32:25.651Z,25.52
2019-03-15T18:34:33.398Z,26.73
2019-03-15T18:36:43.097Z,29.70
2019-03-15T18:38:50.445Z,30.45
2019-03-15T18:40:58.026Z,31.68
2019-03-15T18:43:06.059Z,39.85
2019-03-15T18:45:16.548Z,50.33
2019-03-15T18:47:24.268Z,56.28
2019-03-15T18:49:32.026Z,49.18
2019-03-15T18:51:39.609Z,49.00
2019-03-15T18:53:47.326Z,43.63
2019-03-15T18:55:54.994Z,42.80
2019-03-15T18:58:02.724Z,38.50
2019-03-15T19:00:20.912Z,36.03
2019-03-15T19:02:28.705Z,36.58
2019-03-15T19:04:36.354Z,35.30
2019-03-15T19:06:43.927Z,36.25
2019-03-15T19:08:51.736Z,34.67
2019-03-15T19:10:59.311Z,36.15
2019-03-15T19:13:06.956Z,32.20
2019-03-15T19:15:19.963Z,33.15
2019-03-15T19:17:26.778Z,32.38
2019-03-15T19:19:33.819Z,33.73
2019-03-15T19:21:41.568Z,25.43
2019-03-15T19:23:50.272Z,19.98
2019-03-15T19:25:57.951Z,24.15
2019-03-15T19:28:05.656Z,24.18
2019-03-15T19:30:20.195Z,23.90
2019-03-15T19:32:28.176Z,23.27
2019-03-15T19:34:35.807Z,25.37
2019-03-15T19:36:43.650Z,24.35
2019-03-15T19:38:51.224Z,26.70
2019-03-15T19:40:58.859Z,25.40
2019-03-15T19:43:06.596Z,22.17
2019-03-15T19:45:15.889Z,25.43
2019-03-15T19:47:24.563Z,23.95
2019-03-15T19:49:33.210Z,23.67
2019-03-15T19:51:40.783Z,23.67
2019-03-15T19:53:48.390Z,22.37
2019-03-15T19:55:56.208Z,24.07
2019-03-15T19:58:03.938Z,22.52
2019-03-15T20:00:15.502Z,24.18
2019-03-15T20:02:23.334Z,21.12
2019-03-15T20:04:31.082Z,21.15
2019-03-15T20:06:38.690Z,21.57
2019-03-15T20:08:46.273Z,22.35
2019-03-15T20:10:56.660Z,19.73
2019-03-15T20:13:04.605Z,19.92
2019-03-15T20:15:17.059Z,22.42
2019-03-15T20:17:24.696Z,20.85
2019-03-15T20:19:32.369Z,22.15
2019-03-15T20:21:39.939Z,22.27
2019-03-15T20:23:47.721Z,24.43
2019-03-15T20:25:56.468Z,24.95
2019-03-15T20:28:04.407Z,23.40
2019-03-15T20:30:25.572Z,22.77
2019-03-15T20:32:31.281Z,23.40
2019-03-15T20:34:39.011Z,23.83
2019-03-15T20:36:46.599Z,29.42
2019-03-15T20:38:54.371Z,26.40
2019-03-15T20:41:02.023Z,25.15
2019-03-15T20:43:09.776Z,24.47
2019-03-15T20:45:28.978Z,26.00
2019-03-15T20:47:36.799Z,24.75
2019-03-15T20:49:44.370Z,26.02
2019-03-15T20:51:52.205Z,22.10
2019-03-15T20:53:59.929Z,22.62
2019-03-15T20:56:07.487Z,23.35
2019-03-15T20:58:17.180Z,22.93
2019-03-15T21:00:34.828Z,22.87
2019-03-15T21:02:34.095Z,17.50
2019-03-15T21:04:41.794Z,22.37
2019-03-15T21:06:49.408Z,20.72
2019-03-15T21:08:56.980Z,21.10
2019-03-15T21:11:04.598Z,22.87
2019-03-15T21:13:12.737Z,20.72
2019-03-15T21:15:20.384Z,22.15
2019-03-15T21:17:27.988Z,23.92
2019-03-15T21:19:35.642Z,24.65
2019-03-15T21:21:43.446Z,23.55
2019-03-15T21:23:51.149Z,23.47
2019-03-15T21:25:58.728Z,24.23
2019-03-15T21:28:06.418Z,24.30
2019-03-15T21:30:23.263Z,23.77
2019-03-15T21:32:30.839Z,26.23
2019-03-15T21:34:38.412Z,23.38
2019-03-15T21:36:46.274Z,23.18
2019-03-15T21:38:53.932Z,22.98
2019-03-15T21:41:01.662Z,21.57
2019-03-15T21:43:10.425Z,18.95
2019-03-15T21:45:18.108Z,20.70
2019-03-15T21:47:25.965Z,21.62
2019-03-15T21:49:35.336Z,20.37
2019-03-15T21:51:42.832Z,21.65
2019-03-15T21:53:50.499Z,21.02
2019-03-15T21:55:58.092Z,19.62
2019-03-15T21:58:05.773Z,18.50
2019-03-15T22:00:20.893Z,19.10
2019-03-15T22:02:28.502Z,18.62
2019-03-15T22:04:36.085Z,19.70
2019-03-15T22:06:43.662Z,20.37
2019-03-15T22:08:51.506Z,17.65
2019-03-15T22:10:59.076Z,18.20
2019-03-15T22:13:06.834Z,18.10
2019-03-15T22:15:15.339Z,18.57
2019-03-15T22:17:22.943Z,21.05
2019-03-15T22:19:30.877Z,19.23
2019-03-15T22:21:39.829Z,17.70
2019-03-15T22:23:47.401Z,19.35
2019-03-15T22:25:56.267Z,17.90
2019-03-15T22:28:04.033Z,19.12
2019-03-15T22:30:14.862Z,19.05
2019-03-15T22:32:22.431Z,19.05
2019-03-15T22:34:30.199Z,18.23
2019-03-15T22:36:39.062Z,19.02
2019-03-15T22:38:46.808Z,19.82
2019-03-15T22:40:54.680Z,18.57
2019-03-15T22:43:02.459Z,18.50
2019-03-15T22:45:12.102Z,17.50
2019-03-15T22:47:19.679Z,17.05
2019-03-15T22:49:27.326Z,18.75
2019-03-15T22:51:35.011Z,18.73
2019-03-15T22:53:42.629Z,21.57
2019-03-15T22:55:50.373Z,23.62
2019-03-15T22:58:00.161Z,24.92
2019-03-15T23:00:17.090Z,26.33
2019-03-15T23:02:26.267Z,29.95
2019-03-15T23:04:33.843Z,30.17
2019-03-15T23:06:41.558Z,31.17
2019-03-15T23:08:50.329Z,31.30
2019-03-15T23:10:58.104Z,29.15
2019-03-15T23:13:05.736Z,25.95
2019-03-15T23:15:13.482Z,23.73
2019-03-15T23:17:21.110Z,23.57
2019-03-15T23:19:29.999Z,21.82
2019-03-15T23:21:37.582Z,19.40
2019-03-15T23:23:45.234Z,17.55
2019-03-15T23:25:53.004Z,16.45
2019-03-15T23:28:00.957Z,19.62
2019-03-15T23:30:14.586Z,20.80
2019-03-15T23:32:22.217Z,19.27
2019-03-15T23:34:29.793Z,18.02
2019-03-15T23:36:37.368Z,18.73
2019-03-15T23:38:45.365Z,17.40
2019-03-15T23:40:52.939Z,18.52
2019-03-15T23:43:00.512Z,17.37
2019-03-15T23:45:10.857Z,16.27
2019-03-15T23:47:18.566Z,16.07
2019-03-15T23:49:26.240Z,16.02
2019-03-15T23:51:34.279Z,17.17
2019-03-15T23:53:42.827Z,16.00
2019-03-15T23:55:50.671Z,16.57
2019-03-15T23:57:58.569Z,17.20
